Time;durP1;ratioP1;P1;durP2;ratioP2;P2;SDS_P1;SDS_P2;PMS_P1;PMS_P2;Temp;Humidity;BMP_temperature;BMP_pressure;BME280_temperature;BME280_humidity;BME280_pressure;Samples;Min_cycle;Max_cycle;Signal;HPM_P1;HPM_P2
2023/02/19 00:01:16;;;;;;;30.35;16.95;;;10.80;99.90;;;;;;5062941;28;20559;-43
2023/02/19 00:03:46;;;;;;;25.38;16.70;;;10.80;99.90;;;;;;5063075;28;20060;-43
2023/02/19 00:06:12;;;;;;;26.52;17.80;;;10.80;99.90;;;;;;5061463;28;20503;-43
2023/02/19 00:08:38;;;;;;;31.55;18.83;;;10.80;99.90;;;;;;5062307;28;20036;-43
2023/02/19 00:11:13;;;;;;;33.58;19.13;;;10.70;99.90;;;;;;5062648;28;20777;-43
2023/02/19 00:13:41;;;;;;;33.80;18.60;;;10.70;99.90;;;;;;5061686;28;20127;-43
2023/02/19 00:16:15;;;;;;;31.23;18.67;;;10.70;99.90;;;;;;5062306;28;20799;-43
2023/02/19 00:18:41;;;;;;;34.85;20.30;;;10.70;99.90;;;;;;5062869;28;20066;-43
2023/02/19 00:21:07;;;;;;;32.15;18.50;;;10.70;99.90;;;;;;5061721;28;20031;-43
2023/02/19 00:23:33;;;;;;;32.53;19.25;;;10.70;99.90;;;;;;5062613;28;20052;-43
2023/02/19 00:26:15;;;;;;;30.58;17.83;;;10.70;99.90;;;;;;5062796;28;20024;-43
2023/02/19 00:28:40;;;;;;;32.72;19.02;;;10.70;99.90;;;;;;5062422;28;20481;-43
2023/02/19 00:31:33;;;;;;;29.73;17.88;;;10.70;99.90;;;;;;5062167;28;20033;-42
2023/02/19 00:34:01;;;;;;;28.55;16.88;;;10.70;99.90;;;;;;5058429;28;20048;-42
2023/02/19 00:36:28;;;;;;;23.85;15.95;;;10.70;99.90;;;;;;5062814;28;20058;-42
2023/02/19 00:38:53;;;;;;;25.48;16.80;;;10.70;99.90;;;;;;5062013;28;20127;-42
2023/02/19 00:41:21;;;;;;;27.30;17.95;;;10.70;99.90;;;;;;5062344;28;20036;-43
2023/02/19 00:44:06;;;;;;;32.55;17.67;;;10.70;99.90;;;;;;5062051;28;20032;-43
2023/02/19 00:46:37;;;;;;;27.52;16.65;;;10.70;99.90;;;;;;5062192;28;20024;-43
2023/02/19 00:49:04;;;;;;;29.88;16.65;;;10.70;99.90;;;;;;5060910;28;20055;-43
2023/02/19 00:51:32;;;;;;;23.05;15.60;;;10.70;99.90;;;;;;5061959;28;20036;-43
2023/02/19 00:53:59;;;;;;;20.90;14.70;;;10.70;99.90;;;;;;5061408;28;20117;-43
2023/02/19 00:56:24;;;;;;;24.27;15.32;;;10.70;99.90;;;;;;5061424;28;20028;-43
2023/02/19 00:58:51;;;;;;;24.15;14.18;;;10.60;99.90;;;;;;5061542;28;20190;-43
2023/02/19 01:01:17;;;;;;;18.33;14.02;;;10.60;99.90;;;;;;5061440;28;20078;-43
2023/02/19 01:03:44;;;;;;;21.60;14.88;;;10.60;99.90;;;;;;5060860;28;20032;-44
2023/02/19 01:06:11;;;;;;;23.63;15.18;;;10.50;99.90;;;;;;5061588;28;20044;-43
2023/02/19 01:08:37;;;;;;;21.77;14.43;;;10.60;99.90;;;;;;5061056;28;20522;-43
2023/02/19 01:11:04;;;;;;;21.10;14.30;;;10.60;99.90;;;;;;5061974;28;20058;-42
2023/02/19 01:13:30;;;;;;;23.15;15.00;;;10.50;99.90;;;;;;5062729;28;20035;-43
2023/02/19 01:16:09;;;;;;;22.30;14.57;;;10.50;99.90;;;;;;5061151;28;20012;-43
2023/02/19 01:18:35;;;;;;;19.50;14.45;;;10.50;99.90;;;;;;5060921;28;20056;-43
2023/02/19 01:21:06;;;;;;;21.00;14.45;;;10.50;99.90;;;;;;5061069;28;20840;-43
2023/02/19 01:23:31;;;;;;;20.65;14.15;;;10.50;99.90;;;;;;5061210;28;20034;-43
2023/02/19 01:25:57;;;;;;;28.35;15.25;;;10.50;99.90;;;;;;5060936;28;20020;-43
2023/02/19 01:28:22;;;;;;;25.83;15.50;;;10.50;99.90;;;;;;5061268;28;20028;-43
2023/02/19 01:30:48;;;;;;;24.55;15.68;;;10.50;99.90;;;;;;5059881;28;20066;-43
2023/02/19 01:33:13;;;;;;;25.20;13.98;;;10.50;99.90;;;;;;5060952;28;20039;-43
2023/02/19 01:35:39;;;;;;;27.13;15.07;;;10.60;99.90;;;;;;5060966;28;20051;-43
2023/02/19 01:38:07;;;;;;;23.92;14.57;;;10.50;99.90;;;;;;5060496;28;20103;-43
2023/02/19 01:40:33;;;;;;;23.23;14.70;;;10.50;99.90;;;;;;5061140;28;20623;-43
2023/02/19 01:42:58;;;;;;;19.13;13.60;;;10.50;99.90;;;;;;5061094;28;20031;-42
2023/02/19 01:45:24;;;;;;;21.65;13.80;;;10.50;99.90;;;;;;5060374;28;20028;-43
2023/02/19 01:48:05;;;;;;;22.55;13.63;;;10.60;99.90;;;;;;5060322;28;20081;-43
2023/02/19 01:50:35;;;;;;;20.85;12.48;;;10.50;99.90;;;;;;5060858;28;20724;-43
2023/02/19 01:53:05;;;;;;;20.95;12.05;;;10.50;99.90;;;;;;5060966;28;20072;-43
2023/02/19 01:55:32;;;;;;;21.27;12.50;;;10.50;99.90;;;;;;5060332;28;20052;-43
2023/02/19 01:58:00;;;;;;;20.67;11.70;;;10.50;99.90;;;;;;5059775;28;20029;-43
2023/02/19 02:00:26;;;;;;;21.02;12.05;;;10.50;99.90;;;;;;5060369;28;20016;-43
2023/02/19 02:02:56;;;;;;;21.52;11.65;;;10.50;99.90;;;;;;5061126;28;20020;-43
2023/02/19 02:06:07;;;;;;;20.30;11.88;;;10.50;99.90;;;;;;5059941;28;20044;-44
2023/02/19 02:11:18;;;;;;;24.42;10.45;;;10.50;99.90;;;;;;5050787;28;20689;-43
2023/02/19 02:13:45;;;;;;;21.48;10.85;;;10.50;99.90;;;;;;5059873;28;20036;-43
2023/02/19 02:16:13;;;;;;;17.83;9.60;;;10.40;99.90;;;;;;5060744;28;20145;-44
2023/02/19 02:18:57;;;;;;;19.38;9.65;;;10.40;99.90;;;;;;5060792;28;20079;-43
2023/02/19 02:21:40;;;;;;;19.42;8.73;;;10.40;99.90;;;;;;5060513;28;20035;-44
2023/02/19 02:24:21;;;;;;;17.35;8.77;;;10.40;99.90;;;;;;5060911;28;20024;-43
2023/02/19 02:27:15;;;;;;;19.88;8.70;;;10.40;99.90;;;;;;5059460;28;20036;-44
2023/02/19 02:30:18;;;;;;;19.17;8.85;;;10.30;99.90;;;;;;5060498;28;20682;-43
2023/02/19 02:33:30;;;;;;;19.83;8.45;;;10.30;99.90;;;;;;5060217;28;20086;-43
2023/02/19 02:36:11;;;;;;;18.63;7.80;;;10.30;99.90;;;;;;5040701;28;20031;-43
2023/02/19 02:38:41;;;;;;;14.75;7.45;;;10.30;99.90;;;;;;5057883;28;20082;-43
2023/02/19 02:41:08;;;;;;;18.75;8.38;;;10.20;99.90;;;;;;5060056;28;20393;-43
2023/02/19 02:43:33;;;;;;;20.63;8.18;;;10.30;99.90;;;;;;5060656;28;20094;-43
2023/02/19 02:45:59;;;;;;;18.95;8.05;;;10.20;99.90;;;;;;5060858;28;20505;-43
2023/02/19 02:48:37;;;;;;;16.67;8.20;;;10.30;99.90;;;;;;5059510;28;20031;-43
2023/02/19 02:51:05;;;;;;;15.50;6.85;;;10.30;99.90;;;;;;5060464;28;20063;-43
2023/02/19 02:56:23;;;;;;;14.95;6.57;;;10.30;99.90;;;;;;5060197;28;20693;-43
2023/02/19 02:58:50;;;;;;;17.05;7.68;;;10.30;99.90;;;;;;5059849;28;20106;-43
2023/02/19 03:07:46;;;;;;;14.43;7.22;;;10.30;99.90;;;;;;5028441;28;20107;-43
2023/02/19 03:10:16;;;;;;;9.98;6.93;;;10.30;99.90;;;;;;5049411;28;20403;-43
2023/02/19 03:21:09;;;;;;;13.18;6.00;;;10.30;99.90;;;;;;5060081;28;19911;-43
2023/02/19 03:26:32;;;;;;;12.85;5.60;;;10.30;99.90;;;;;;5063628;28;20403;-43
2023/02/19 03:31:46;;;;;;;14.05;6.70;;;10.30;99.90;;;;;;5063442;28;20150;-43
2023/02/19 03:34:17;;;;;;;12.05;5.30;;;10.30;99.90;;;;;;5062807;28;20094;-43
2023/02/19 03:36:54;;;;;;;10.00;5.30;;;10.30;99.90;;;;;;5062881;28;20031;-43
2023/02/19 03:39:22;;;;;;;11.77;6.07;;;10.30;99.90;;;;;;5063917;28;20036;-43
2023/02/19 03:41:57;;;;;;;14.75;5.90;;;10.30;99.90;;;;;;5063483;28;20066;-44
2023/02/19 03:44:43;;;;;;;10.57;5.65;;;10.30;99.90;;;;;;5062829;28;20494;-43
2023/02/19 03:47:30;;;;;;;16.75;6.60;;;10.30;99.90;;;;;;5063477;28;20031;-44
2023/02/19 03:50:13;;;;;;;12.82;5.50;;;10.30;99.90;;;;;;5062639;28;20446;-43
2023/02/19 03:52:44;;;;;;;12.18;5.40;;;10.30;99.90;;;;;;5063081;28;20114;-43
2023/02/19 03:55:26;;;;;;;12.00;5.35;;;10.30;99.90;;;;;;5063604;28;20131;-44
2023/02/19 03:57:57;;;;;;;10.82;5.47;;;10.30;99.90;;;;;;5062757;28;20039;-44
2023/02/19 04:00:41;;;;;;;11.18;5.22;;;10.30;99.90;;;;;;5063341;28;20472;-44
2023/02/19 04:03:17;;;;;;;10.10;5.20;;;10.30;99.90;;;;;;5063146;28;20047;-43
2023/02/19 04:05:50;;;;;;;9.05;4.90;;;10.30;99.90;;;;;;5061917;28;20040;-44
2023/02/19 04:08:20;;;;;;;8.18;5.15;;;10.30;99.90;;;;;;5063202;28;20119;-44
2023/02/19 04:10:48;;;;;;;9.10;5.30;;;10.30;99.90;;;;;;5062593;28;20189;-43
2023/02/19 04:13:30;;;;;;;10.80;5.32;;;10.30;99.90;;;;;;5062921;28;20032;-44
2023/02/19 04:16:02;;;;;;;9.05;4.88;;;10.30;99.90;;;;;;5062732;28;20427;-44
2023/02/19 04:18:33;;;;;;;8.50;5.22;;;10.40;99.90;;;;;;5062444;28;20029;-43
2023/02/19 04:20:59;;;;;;;9.90;5.30;;;10.40;99.90;;;;;;5062685;28;20032;-44
2023/02/19 04:23:28;;;;;;;10.57;5.18;;;10.30;99.90;;;;;;5063075;28;20024;-44
2023/02/19 04:26:00;;;;;;;11.05;5.72;;;10.30;99.90;;;;;;5061814;28;20884;-43
2023/02/19 04:28:27;;;;;;;10.95;5.82;;;10.30;99.90;;;;;;5062400;28;20602;-42
2023/02/19 04:30:53;;;;;;;12.13;5.43;;;10.30;99.90;;;;;;5062199;28;20056;-42
2023/02/19 04:33:18;;;;;;;8.98;4.72;;;10.30;99.90;;;;;;5062144;28;20127;-43
2023/02/19 04:35:44;;;;;;;8.02;4.38;;;10.30;99.90;;;;;;5062197;28;20161;-43
2023/02/19 04:38:11;;;;;;;7.53;4.28;;;10.30;99.90;;;;;;5063004;28;20029;-43
2023/02/19 04:40:36;;;;;;;6.45;4.35;;;10.30;99.90;;;;;;5062090;28;20020;-42
2023/02/19 04:43:02;;;;;;;12.30;5.38;;;10.30;99.90;;;;;;5062513;28;20031;-43
2023/02/19 04:45:27;;;;;;;9.23;5.20;;;10.30;99.90;;;;;;5061906;28;20025;-43
2023/02/19 04:47:56;;;;;;;7.03;5.07;;;10.30;99.90;;;;;;5061192;28;20024;-43
2023/02/19 04:50:22;;;;;;;9.48;4.75;;;10.30;99.90;;;;;;5062349;28;20036;-42
2023/02/19 04:52:47;;;;;;;10.35;5.00;;;10.30;99.90;;;;;;5062059;28;20036;-43
2023/02/19 04:55:13;;;;;;;9.77;4.93;;;10.20;99.90;;;;;;5061727;28;20039;-43
2023/02/19 04:57:38;;;;;;;8.60;4.63;;;10.20;99.90;;;;;;5061840;28;20037;-42
2023/02/19 05:00:04;;;;;;;8.07;4.78;;;10.30;99.90;;;;;;5061993;28;20609;-43
2023/02/19 05:02:30;;;;;;;9.77;5.10;;;10.30;99.90;;;;;;5061694;28;20788;-43
2023/02/19 05:04:55;;;;;;;12.25;5.40;;;10.30;99.90;;;;;;5061840;28;20064;-43
2023/02/19 05:07:21;;;;;;;10.02;5.55;;;10.30;99.90;;;;;;5061918;28;20465;-43
2023/02/19 05:09:46;;;;;;;7.93;4.60;;;10.20;99.90;;;;;;5061431;28;20031;-43
2023/02/19 05:12:12;;;;;;;10.60;6.15;;;10.30;99.90;;;;;;5061910;28;20402;-43
2023/02/19 05:14:38;;;;;;;9.88;5.50;;;10.30;99.90;;;;;;5061084;28;20021;-43
2023/02/19 05:17:03;;;;;;;8.68;4.63;;;10.30;99.90;;;;;;5061765;28;20692;-43
2023/02/19 05:19:29;;;;;;;7.85;4.30;;;10.30;99.90;;;;;;5061492;28;20094;-42
2023/02/19 05:22:00;;;;;;;11.35;4.88;;;10.30;99.90;;;;;;5060556;28;20013;-42
2023/02/19 05:24:30;;;;;;;12.05;5.55;;;10.30;99.90;;;;;;5061720;28;20032;-42
2023/02/19 05:26:56;;;;;;;16.88;5.93;;;10.30;99.90;;;;;;5061062;28;20048;-42
2023/02/19 05:29:21;;;;;;;10.32;5.10;;;10.30;99.90;;;;;;5061098;28;20108;-42
2023/02/19 05:31:47;;;;;;;9.88;5.03;;;10.30;99.90;;;;;;5061645;28;20379;-43
2023/02/19 05:34:13;;;;;;;9.25;5.20;;;10.30;99.90;;;;;;5061278;28;20029;-43
2023/02/19 05:36:39;;;;;;;9.85;5.20;;;10.30;99.90;;;;;;5059918;28;20024;-43
2023/02/19 05:39:06;;;;;;;9.90;5.07;;;10.30;99.90;;;;;;5061405;28;20147;-42
2023/02/19 05:41:31;;;;;;;9.77;5.43;;;10.30;99.90;;;;;;5060953;28;20033;-43
2023/02/19 05:43:57;;;;;;;11.52;6.43;;;10.30;99.90;;;;;;5060637;28;20571;-43
2023/02/19 05:46:26;;;;;;;8.38;4.88;;;10.30;99.90;;;;;;5061189;28;20497;-43
2023/02/19 05:48:52;;;;;;;13.95;5.35;;;10.30;99.90;;;;;;5060472;28;20044;-43
2023/02/19 05:51:22;;;;;;;7.15;4.63;;;10.30;99.90;;;;;;5060662;28;20017;-43
2023/02/19 05:53:55;;;;;;;9.70;4.82;;;10.30;99.90;;;;;;5060463;28;20123;-43
2023/02/19 05:56:37;;;;;;;10.15;4.40;;;10.30;99.90;;;;;;5061619;28;20052;-43
2023/02/19 05:59:15;;;;;;;7.60;4.43;;;10.30;99.90;;;;;;5060155;28;20873;-43
2023/02/19 06:01:41;;;;;;;10.45;4.68;;;10.30;99.90;;;;;;5060934;28;20024;-43
2023/02/19 06:04:08;;;;;;;11.80;4.78;;;10.30;99.90;;;;;;5060618;28;20098;-43
2023/02/19 06:06:33;;;;;;;9.35;4.70;;;10.30;99.90;;;;;;5060289;28;20086;-43
2023/02/19 06:08:59;;;;;;;9.70;4.78;;;10.30;99.90;;;;;;5060379;28;20024;-43
2023/02/19 06:11:24;;;;;;;15.57;5.65;;;10.30;99.90;;;;;;5060245;28;20055;-43
2023/02/19 06:13:50;;;;;;;14.82;5.30;;;10.30;99.90;;;;;;5059581;28;20067;-43
2023/02/19 06:16:16;;;;;;;12.60;5.75;;;10.20;99.90;;;;;;5061782;28;20020;-43
2023/02/19 06:18:43;;;;;;;10.82;5.80;;;10.20;99.90;;;;;;5059827;28;20107;-43
2023/02/19 06:21:13;;;;;;;12.35;5.43;;;10.20;99.90;;;;;;5060404;28;20032;-43
2023/02/19 06:23:39;;;;;;;9.57;5.00;;;10.20;99.90;;;;;;5060717;28;20067;-43
2023/02/19 06:26:10;;;;;;;12.32;5.78;;;10.20;99.90;;;;;;5060499;28;20113;-43
2023/02/19 06:28:37;;;;;;;12.07;5.30;;;10.20;99.90;;;;;;5060596;28;20411;-43
2023/02/19 06:31:04;;;;;;;13.10;5.25;;;10.20;99.90;;;;;;5060126;28;20103;-43
2023/02/19 06:33:29;;;;;;;10.75;4.72;;;10.20;99.90;;;;;;5060025;28;20059;-43
2023/02/19 06:35:58;;;;;;;12.93;4.95;;;10.20;99.90;;;;;;5060266;28;20829;-44
2023/02/19 06:38:24;;;;;;;13.27;5.50;;;10.20;99.90;;;;;;5061252;28;20020;-43
2023/02/19 06:40:50;;;;;;;14.75;5.53;;;10.20;99.90;;;;;;5059244;28;20020;-44
2023/02/19 06:43:15;;;;;;;13.45;5.78;;;10.20;99.90;;;;;;5061149;28;20140;-43
2023/02/19 06:45:41;;;;;;;10.07;5.25;;;10.20;99.90;;;;;;5059970;28;20020;-43
2023/02/19 06:48:06;;;;;;;12.13;5.95;;;10.20;99.90;;;;;;5059911;28;20042;-43
2023/02/19 06:50:35;;;;;;;11.90;5.13;;;10.20;99.90;;;;;;5060950;28;20440;-43
2023/02/19 06:53:00;;;;;;;10.32;5.03;;;10.20;99.90;;;;;;5060338;28;20064;-43
2023/02/19 06:55:26;;;;;;;12.82;5.95;;;10.20;99.90;;;;;;5060406;28;20103;-43
2023/02/19 06:57:51;;;;;;;9.32;5.00;;;10.20;99.90;;;;;;5059810;28;20028;-44
2023/02/19 07:00:17;;;;;;;13.55;5.78;;;10.20;99.90;;;;;;5063195;28;20055;-44
2023/02/19 07:02:43;;;;;;;13.65;5.75;;;10.20;99.90;;;;;;5064003;28;20033;-44
2023/02/19 07:05:08;;;;;;;12.52;5.78;;;10.20;99.90;;;;;;5063490;28;20044;-44
2023/02/19 07:07:34;;;;;;;11.93;5.10;;;10.20;99.90;;;;;;5062943;28;20020;-44
2023/02/19 07:10:00;;;;;;;11.27;5.63;;;10.20;99.90;;;;;;5064529;28;20469;-44
2023/02/19 07:12:25;;;;;;;11.88;4.80;;;10.20;99.90;;;;;;5063517;28;20102;-44
2023/02/19 07:14:51;;;;;;;10.77;5.55;;;10.20;99.90;;;;;;5062818;28;20025;-44
2023/02/19 07:17:19;;;;;;;13.00;5.40;;;10.20;99.90;;;;;;5063396;28;20020;-44
2023/02/19 07:19:44;;;;;;;14.82;5.78;;;10.20;99.90;;;;;;5063937;28;20035;-44
2023/02/19 07:22:10;;;;;;;12.13;5.60;;;10.20;99.90;;;;;;5062717;28;20020;-44
2023/02/19 07:24:36;;;;;;;15.43;5.55;;;10.10;99.90;;;;;;5063204;28;20024;-44
2023/02/19 07:27:04;;;;;;;12.05;5.65;;;10.10;99.90;;;;;;5063974;28;20476;-44
2023/02/19 07:29:29;;;;;;;9.15;5.60;;;10.10;99.90;;;;;;5063651;28;20069;-44
2023/02/19 07:31:55;;;;;;;11.02;6.43;;;10.10;99.90;;;;;;5063926;28;20112;-44
2023/02/19 07:34:20;;;;;;;9.88;6.25;;;10.10;99.90;;;;;;5064305;28;20145;-44
2023/02/19 07:36:46;;;;;;;11.55;6.00;;;10.10;99.90;;;;;;5062391;28;20032;-44
2023/02/19 07:39:14;;;;;;;9.63;6.10;;;10.10;99.90;;;;;;5063808;28;20037;-44
2023/02/19 07:41:40;;;;;;;14.55;6.60;;;10.10;99.90;;;;;;5062827;28;20060;-44
2023/02/19 07:44:05;;;;;;;8.50;6.07;;;10.10;99.90;;;;;;5063389;28;20718;-44
2023/02/19 07:46:31;;;;;;;10.02;6.57;;;10.10;99.90;;;;;;5063744;28;20495;-43
2023/02/19 07:48:58;;;;;;;12.63;7.53;;;10.10;99.90;;;;;;5062569;28;20021;-44
2023/02/19 07:51:23;;;;;;;11.88;7.43;;;10.10;99.90;;;;;;5062900;28;20419;-44
2023/02/19 07:53:49;;;;;;;11.65;7.50;;;10.10;99.90;;;;;;5062625;28;20495;-44
2023/02/19 07:56:15;;;;;;;10.85;7.30;;;10.10;99.90;;;;;;5063716;28;20103;-43
2023/02/19 07:58:42;;;;;;;9.77;6.75;;;10.10;99.90;;;;;;5062528;28;20651;-44
2023/02/19 08:02:58;;;;;;;9.65;6.68;;;10.10;99.90;;;;;;5063251;28;20514;-43
2023/02/19 08:04:05;;;;;;;8.95;6.65;;;10.10;99.90;;;;;;5062204;28;20039;-44
2023/02/19 08:06:31;;;;;;;12.70;7.35;;;10.10;99.90;;;;;;5061933;28;20052;-43
2023/02/19 08:08:56;;;;;;;12.65;7.50;;;10.20;99.90;;;;;;5061247;28;20029;-43
2023/02/19 08:14:06;;;;;;;11.88;7.63;;;10.20;99.90;;;;;;5061761;28;20097;-43
2023/02/19 08:16:32;;;;;;;11.20;7.32;;;10.20;99.90;;;;;;5062134;28;20456;-43
2023/02/19 08:18:57;;;;;;;12.93;6.68;;;10.20;99.90;;;;;;5060268;28;20020;-43
2023/02/19 08:21:23;;;;;;;12.65;7.30;;;10.30;99.90;;;;;;5061962;28;20017;-43
2023/02/19 08:23:48;;;;;;;10.40;6.68;;;10.30;99.90;;;;;;5060713;28;20028;-43
2023/02/19 08:26:14;;;;;;;16.73;7.70;;;10.30;99.90;;;;;;5061089;28;20088;-44
2023/02/19 08:28:40;;;;;;;15.38;7.07;;;10.30;99.90;;;;;;5061100;28;20028;-44
2023/02/19 08:31:08;;;;;;;13.98;6.72;;;10.30;99.90;;;;;;5061825;28;20094;-44
2023/02/19 08:33:33;;;;;;;12.23;6.95;;;10.30;99.90;;;;;;5061014;28;20041;-43
2023/02/19 08:36:05;;;;;;;17.27;7.38;;;10.30;99.90;;;;;;5062014;28;20027;-43
2023/02/19 08:38:34;;;;;;;14.80;7.00;;;10.30;99.90;;;;;;5060591;28;20032;-43
2023/02/19 08:41:12;;;;;;;11.68;7.10;;;10.40;99.90;;;;;;5060780;28;20051;-43
2023/02/19 08:43:39;;;;;;;14.30;7.10;;;10.40;99.90;;;;;;5061224;28;20021;-43
2023/02/19 08:46:06;;;;;;;13.85;7.25;;;10.40;99.90;;;;;;5061394;28;20025;-44
2023/02/19 08:48:32;;;;;;;10.77;7.05;;;10.40;99.90;;;;;;5061510;28;20043;-43
2023/02/19 08:51:02;;;;;;;13.52;6.95;;;10.40;99.90;;;;;;5059812;28;20471;-43
2023/02/19 08:53:30;;;;;;;13.02;7.47;;;10.40;99.90;;;;;;5060682;28;20039;-43
2023/02/19 08:55:55;;;;;;;10.40;7.20;;;10.50;99.90;;;;;;5060570;28;20375;-43
2023/02/19 08:58:21;;;;;;;16.05;8.15;;;10.50;99.90;;;;;;5060710;28;20049;-43
2023/02/19 09:00:47;;;;;;;14.45;7.88;;;10.50;99.90;;;;;;5060018;28;20031;-43
2023/02/19 09:03:13;;;;;;;14.13;8.73;;;10.50;99.90;;;;;;5061159;28;20090;-43
2023/02/19 09:05:39;;;;;;;17.35;8.00;;;10.50;99.90;;;;;;5024469;28;1035496;-43
2023/02/19 09:08:05;;;;;;;16.48;7.82;;;10.50;99.90;;;;;;5060927;28;20290;-44
2023/02/19 09:10:30;;;;;;;16.63;8.25;;;10.60;99.90;;;;;;5061759;28;20024;-43
2023/02/19 09:12:56;;;;;;;11.55;7.07;;;10.60;99.90;;;;;;5061370;28;20104;-43
2023/02/19 09:15:25;;;;;;;15.15;8.10;;;10.60;99.90;;;;;;5061068;28;20035;-44
2023/02/19 09:17:51;;;;;;;12.43;7.13;;;10.60;99.90;;;;;;5061056;28;20518;-43
2023/02/19 09:20:20;;;;;;;13.40;8.07;;;10.60;99.90;;;;;;5061348;28;20020;-43
2023/02/19 09:22:48;;;;;;;14.98;8.38;;;10.60;99.90;;;;;;5060271;28;20148;-43
2023/02/19 09:25:14;;;;;;;14.73;7.93;;;10.60;99.90;;;;;;5061630;28;20021;-44
2023/02/19 09:27:39;;;;;;;14.77;7.80;;;10.60;99.90;;;;;;5061137;28;20029;-43
2023/02/19 09:30:05;;;;;;;12.63;8.32;;;10.60;99.90;;;;;;5060280;28;20028;-43
2023/02/19 09:32:32;;;;;;;9.48;7.40;;;10.60;99.90;;;;;;5061390;28;20095;-43
2023/02/19 09:35:00;;;;;;;10.98;7.50;;;10.60;99.90;;;;;;5060371;28;20029;-43
2023/02/19 09:37:27;;;;;;;13.50;7.88;;;10.70;99.90;;;;;;5061652;28;20061;-43
2023/02/19 09:39:53;;;;;;;12.95;6.97;;;10.70;99.90;;;;;;5060504;28;20122;-44
2023/02/19 09:42:25;;;;;;;11.98;7.38;;;10.80;99.90;;;;;;5060946;28;20016;-43
2023/02/19 09:45:03;;;;;;;10.13;7.43;;;10.80;99.90;;;;;;5060658;28;20031;-43
2023/02/19 09:47:31;;;;;;;11.80;8.13;;;10.80;99.90;;;;;;5060493;28;20465;-43
2023/02/19 09:50:08;;;;;;;13.25;7.95;;;10.80;99.90;;;;;;5059637;28;20056;-44
2023/02/19 09:52:49;;;;;;;12.23;8.10;;;10.80;99.90;;;;;;5060511;28;20543;-42
2023/02/19 09:55:24;;;;;;;11.48;8.40;;;10.80;99.90;;;;;;5061300;28;20020;-43
2023/02/19 09:57:51;;;;;;;11.50;8.00;;;10.80;99.90;;;;;;5059192;28;20836;-43
2023/02/19 10:00:25;;;;;;;13.20;8.65;;;10.90;99.90;;;;;;5061049;28;20427;-43
2023/02/19 10:03:12;;;;;;;12.25;8.98;;;11.00;99.90;;;;;;5059455;28;20028;-43
2023/02/19 10:05:38;;;;;;;15.57;10.55;;;11.00;99.90;;;;;;5049602;28;20052;-43
2023/02/19 10:08:11;;;;;;;16.30;10.52;;;11.10;99.90;;;;;;5060034;28;20032;-42
2023/02/19 10:10:40;;;;;;;;;;;11.10;99.90;;;;;;5060899;28;20047;-42
2023/02/19 10:13:20;;;;;;;15.75;10.23;;;11.10;99.90;;;;;;5060523;28;19988;-43
2023/02/19 10:15:47;;;;;;;16.95;10.05;;;11.10;99.90;;;;;;5040945;28;20029;-42
2023/02/19 10:18:17;;;;;;;13.10;9.68;;;11.10;99.90;;;;;;5056440;28;20054;-43
2023/02/19 10:20:47;;;;;;;14.00;10.48;;;11.10;99.90;;;;;;5060971;28;20082;-43
2023/02/19 10:23:14;;;;;;;15.93;10.23;;;11.10;99.90;;;;;;5060616;28;20078;-43
2023/02/19 10:25:53;;;;;;;12.88;8.80;;;11.10;99.90;;;;;;5059603;28;20025;-42
2023/02/19 10:28:26;;;;;;;13.82;8.38;;;11.10;99.90;;;;;;5060200;28;20060;-43
2023/02/19 10:30:56;;;;;;;12.45;8.38;;;11.10;99.90;;;;;;5059588;28;20094;-43
2023/02/19 10:33:22;;;;;;;10.45;7.22;;;11.10;99.90;;;;;;5059418;28;20040;-42
2023/02/19 10:35:58;;;;;;;9.68;6.05;;;11.20;99.90;;;;;;5059851;28;20035;-44
2023/02/19 10:38:40;;;;;;;9.55;5.60;;;11.10;99.90;;;;;;5059525;28;20020;-43
2023/02/19 10:41:19;;;;;;;7.18;4.80;;;11.10;99.90;;;;;;5060159;28;20032;-32
2023/02/19 10:43:55;;;;;;;7.50;4.03;;;11.10;99.90;;;;;;5059392;28;20025;-32
2023/02/19 10:46:31;;;;;;;7.63;4.28;;;11.10;99.90;;;;;;5059220;28;20849;-32
2023/02/19 10:49:06;;;;;;;8.05;3.78;;;11.10;99.90;;;;;;5059395;28;20023;-32
2023/02/19 10:51:41;;;;;;;4.32;3.10;;;11.10;99.90;;;;;;5059811;28;20073;-33
2023/02/19 10:54:30;;;;;;;4.05;2.65;;;10.90;99.90;;;;;;5058622;28;20921;-34
2023/02/19 10:57:14;;;;;;;3.63;2.85;;;10.90;99.90;;;;;;5039857;28;20021;-32
2023/02/19 10:59:51;;;;;;;6.32;2.88;;;10.90;99.90;;;;;;5055934;28;20136;-33
2023/02/19 11:02:20;;;;;;;6.10;3.08;;;10.80;99.90;;;;;;5040712;28;20393;-33
2023/02/19 11:05:16;;;;;;;6.18;3.00;;;10.80;99.90;;;;;;5056057;28;20033;-33
2023/02/19 11:07:54;;;;;;;3.78;2.70;;;10.80;99.90;;;;;;5031628;28;20053;-34
2023/02/19 11:10:29;;;;;;;3.85;2.70;;;10.80;99.90;;;;;;5059926;28;20024;-33
2023/02/19 11:13:01;;;;;;;3.25;2.38;;;10.80;99.90;;;;;;5059756;28;20055;-34
2023/02/19 11:15:34;;;;;;;5.55;2.80;;;10.80;99.90;;;;;;5059097;28;20032;-33
2023/02/19 11:18:23;;;;;;;5.32;2.83;;;10.80;99.90;;;;;;5060122;28;20048;-32
2023/02/19 11:20:55;;;;;;;4.97;2.60;;;10.90;99.90;;;;;;5058411;28;20024;-33
2023/02/19 11:23:30;;;;;;;4.25;2.15;;;10.90;99.90;;;;;;5060255;28;20044;-33
2023/02/19 11:26:02;;;;;;;5.88;2.10;;;11.00;99.90;;;;;;5058848;28;20398;-33
2023/02/19 11:28:43;;;;;;;6.22;2.40;;;11.00;99.90;;;;;;5059523;28;20027;-34
2023/02/19 11:31:23;;;;;;;3.63;2.10;;;11.00;99.90;;;;;;5059164;28;20028;-33
2023/02/19 11:33:59;;;;;;;5.35;2.50;;;11.00;99.90;;;;;;5059232;28;20036;-33
2023/02/19 11:36:28;;;;;;;4.72;2.80;;;10.90;99.90;;;;;;5058893;28;20115;-34
2023/02/19 11:38:55;;;;;;;4.20;3.13;;;10.90;99.90;;;;;;5059310;28;20596;-34
2023/02/19 11:41:42;;;;;;;4.75;2.65;;;11.00;99.90;;;;;;5058988;28;20110;-34
2023/02/19 11:44:17;;;;;;;4.72;3.10;;;11.10;99.90;;;;;;5059488;28;20025;-34
2023/02/19 11:47:13;;;;;;;3.45;2.50;;;11.10;99.90;;;;;;5062060;28;20039;-33
2023/02/19 11:49:55;;;;;;;3.63;2.78;;;11.10;99.90;;;;;;5062011;28;20111;-34
2023/02/19 11:52:41;;;;;;;4.13;2.75;;;11.10;99.90;;;;;;5063094;28;20559;-33
2023/02/19 11:55:28;;;;;;;2.65;2.30;;;11.20;99.90;;;;;;5062287;28;20071;-34
2023/02/19 11:58:16;;;;;;;4.55;2.35;;;11.30;99.90;;;;;;5053913;28;20040;-33
2023/02/19 12:01:00;;;;;;;4.13;2.53;;;11.30;99.90;;;;;;5063468;28;20033;-33
2023/02/19 12:03:52;;;;;;;2.40;2.20;;;11.30;99.90;;;;;;5063524;28;20070;-34
2023/02/19 12:06:56;;;;;;;2.63;2.40;;;11.30;99.90;;;;;;5063064;28;20070;-32
2023/02/19 12:09:33;;;;;;;2.80;2.47;;;11.30;99.90;;;;;;5029121;28;20033;-33
2023/02/19 12:12:06;;;;;;;2.13;1.90;;;11.20;99.90;;;;;;5058951;28;20127;-33
2023/02/19 12:14:41;;;;;;;3.22;2.10;;;11.30;99.90;;;;;;5043142;28;20040;-34
2023/02/19 12:17:12;;;;;;;4.22;2.10;;;11.20;99.90;;;;;;5056991;28;20060;-33
2023/02/19 12:19:56;;;;;;;2.80;1.92;;;11.20;99.90;;;;;;5062651;28;20036;-33
2023/02/19 12:22:36;;;;;;;2.15;1.95;;;11.10;99.90;;;;;;5062214;28;20033;-33
2023/02/19 12:25:11;;;;;;;1.63;1.50;;;11.10;99.90;;;;;;5041793;28;20103;-34
2023/02/19 12:27:57;;;;;;;2.67;2.03;;;11.00;99.90;;;;;;5058532;28;20776;-33
2023/02/19 12:30:34;;;;;;;3.80;2.42;;;10.90;99.90;;;;;;5062462;28;20116;-34
2023/02/19 12:33:25;;;;;;;2.95;2.58;;;10.90;99.90;;;;;;5061430;28;20131;-33
2023/02/19 12:36:01;;;;;;;2.65;2.45;;;10.80;99.90;;;;;;5062638;28;20043;-33
2023/02/19 12:38:32;;;;;;;2.97;2.20;;;10.80;99.90;;;;;;5061243;28;20031;-33
2023/02/19 12:41:23;;;;;;;2.60;2.30;;;10.70;99.90;;;;;;5060832;28;20114;-33
2023/02/19 12:44:14;;;;;;;3.85;2.55;;;10.70;99.90;;;;;;5057874;28;20058;-34
2023/02/19 12:46:48;;;;;;;2.50;2.28;;;10.60;99.90;;;;;;5061220;28;20036;-34
2023/02/19 12:49:18;;;;;;;4.05;2.33;;;10.70;99.90;;;;;;5062643;28;20016;-34
2023/02/19 12:51:47;;;;;;;2.63;2.42;;;10.80;99.90;;;;;;5061255;28;20035;-35
2023/02/19 12:54:33;;;;;;;2.50;2.30;;;10.80;99.90;;;;;;5062103;28;20108;-34
2023/02/19 12:57:08;;;;;;;2.65;2.10;;;10.90;99.90;;;;;;5060697;28;20037;-35
2023/02/19 12:59:45;;;;;;;4.38;2.40;;;10.90;99.90;;;;;;5061135;28;20458;-33
2023/02/19 13:02:28;;;;;;;2.60;2.28;;;11.00;99.90;;;;;;5061898;28;20470;-34
2023/02/19 13:05:09;;;;;;;2.60;2.40;;;11.10;99.90;;;;;;5050292;28;20055;-33
2023/02/19 13:07:57;;;;;;;3.25;2.47;;;11.10;99.90;;;;;;5061823;28;20028;-33
2023/02/19 13:10:41;;;;;;;2.83;2.50;;;11.00;99.90;;;;;;5054032;28;20024;-33
2023/02/19 13:13:17;;;;;;;5.47;2.80;;;11.00;99.90;;;;;;5060754;28;20033;-33
2023/02/19 13:15:47;;;;;;;2.70;2.50;;;11.00;99.90;;;;;;5061263;28;20040;-33
2023/02/19 13:18:24;;;;;;;3.00;2.70;;;11.00;99.90;;;;;;5061634;28;20016;-33
2023/02/19 13:20:53;;;;;;;3.25;2.88;;;11.00;99.90;;;;;;5060665;28;20025;-33
2023/02/19 13:26:44;;;;;;;3.53;2.92;;;10.90;99.90;;;;;;5061656;28;20053;-33
2023/02/19 13:29:28;;;;;;;2.15;1.92;;;10.90;99.90;;;;;;5060252;28;20055;-32
2023/02/19 13:32:39;;;;;;;2.17;2.00;;;10.90;99.90;;;;;;5060081;28;20761;-34